Portada
METAR-TAF:

METAR-TAF

Aeroports :

Guanare, Veneçuela

latitud: 09-01N, longitud: 069-44W, altitud: 163 m

Observació

L'informe es va fer fa 43 minuts, a les 16:03 UTC
Vent 7 kt del Est/Sud-Est
Temperatura 29°C
Humitat 70%
Pressió 1015 hPa

METAR: SVGU 191603Z AUTO 11007KT NCD 29/23 Q1015

Hora: 12:46 (16:46 UTC)


TAF: manca

Observacions i pronòstics meteorològics de més de 4000 aeroports (METAR i TAF).

Les estacions disponibles són els punts grocs i vermells al mapa.

Posi el ratolí al punt desitjat per veure el nom de l'estació.

Feu clic per veure les observacions i els pronòstics meteorològics.

Per canviar el mapa: feu clic els botons verds amb una creu de color negre per apropar; al botó verd amb un guió per allunyar la imatge; o en les fletxes verdes per a mapes adjacents.


METAR-TAF: